5 day graph

You are here

Hive Data

Page: 1 of 16645  Records: 998690

Row Date Time Hive Temp Hive Humidity Outside Temp Outside Humidity Bottom Board Temp Outside Wall Temp Electronics Temp Light Levels inHG Fan Heat Cover Notes
Clear Sorted By: Hive Humidity ascending, Bottom Board Temp ascending, Row descending
View 367137 Feb 17 2015 2:03:49am 32 0 35.06 71 47.75 40.55 57.2 247 29.48 0 1 0 NA
View 367138 Feb 17 2015 2:04:50am 32 0 35.06 71 50.45 41 57.2 239 29.47 0 1 0 NA
View 367139 Feb 17 2015 2:05:50am 32 0 35.06 72 52.7 40.55 57.2 240 29.47 0 1 0 NA
View 271193 Dec 4 2014 12:43:09am 32 0 44.24 39 53.15 45.5 64.4 244 29.04 0 1 0 NA
View 367140 Feb 17 2015 2:06:50am 32 0 35.06 72 54.5 40.55 57.2 240 29.47 0 1 0 NA
View 367141 Feb 17 2015 2:07:51am 32 0 35.06 72 56.3 41 57.2 240 29.47 0 1 0 NA
View 271194 Dec 4 2014 12:44:09am 32 0 44.24 39 56.3 45.5 64.4 235 29.03 0 1 0 NA
View 367142 Feb 17 2015 2:08:51am 32 0 34.88 72 57.65 41 57.2 240 29.47 0 1 0 NA
View 367143 Feb 17 2015 2:09:51am 32 0 35.06 72 59 40.55 57.2 240 29.47 0 1 0 NA
View 367144 Feb 17 2015 2:10:52am 32 0 34.88 71 60.35 40.55 57.2 240 29.47 0 1 0 NA
View 367145 Feb 17 2015 2:11:52am 32 0 34.88 71 61.7 40.55 59 239 29.47 0 1 0 NA
View 367146 Feb 17 2015 2:12:53am 32 0 34.88 71 63.05 40.55 59 240 29.47 0 1 0 NA
View 367147 Feb 17 2015 2:13:53am 32 0 34.88 71 63.95 40.55 59 240 29.47 0 1 0 NA
View 367148 Feb 17 2015 2:14:53am 32 0 34.88 71 64.85 40.55 59 240 29.47 0 1 0 NA
View 367149 Feb 17 2015 2:15:54am 32 0 34.7 71 66.2 40.55 59 240 29.47 0 1 0 NA
View 367150 Feb 17 2015 2:16:54am 32 0 34.7 71 67.1 40.55 59 239 29.47 0 1 0 NA
View 367151 Feb 17 2015 2:17:54am 32 0 34.7 71 68 40.55 59 239 29.47 0 1 0 NA
View 367152 Feb 17 2015 2:18:55am 32 0 34.7 71 68.45 40.55 59 239 29.47 0 1 0 NA
View 367153 Feb 17 2015 2:19:55am 32 0 34.7 71 69.35 40.55 59 239 29.47 0 1 0 NA
View 367154 Feb 17 2015 2:20:55am 32 0 34.52 71 70.25 40.55 59 239 29.47 0 1 0 NA
View 367155 Feb 17 2015 2:21:56am 32 0 34.7 71 71.15 40.55 59 239 29.47 0 1 0 NA
View 367156 Feb 17 2015 2:22:56am 32 0 34.7 71 72.05 40.55 59 239 29.47 0 1 0 NA
View 367157 Feb 17 2015 2:23:57am 32 0 34.52 71 72.5 40.55 59 239 29.47 0 1 0 NA
View 367158 Feb 17 2015 2:24:57am 32 0 34.52 71 73.4 40.55 59 239 29.47 0 1 0 NA
View 367159 Feb 17 2015 2:25:57am 32 0 34.52 71 73.85 40.55 59 239 29.47 0 1 0 NA
View 367160 Feb 17 2015 2:26:58am 32 0 34.52 71 74.75 40.55 59 239 29.47 0 1 0 NA
View 367161 Feb 17 2015 2:27:58am 32 0 34.52 71 75.2 40.55 59 238 29.47 0 1 0 NA
View 367162 Feb 17 2015 2:28:58am 32 0 34.52 70 76.1 40.55 59 239 29.46 0 1 0 NA
View 367163 Feb 17 2015 2:29:59am 32 0 34.52 71 76.55 40.1 59 238 29.47 0 1 0 NA
View 367164 Feb 17 2015 2:30:59am 32 0 34.52 71 77 40.1 59 238 29.47 0 1 0 NA
View 367165 Feb 17 2015 2:32:00am 32 0 34.52 70 77.45 40.1 59 238 29.47 0 1 0 NA
View 367166 Feb 17 2015 2:33:00am 32 0 34.52 71 78.35 40.1 59 239 29.47 0 1 0 NA
View 367167 Feb 17 2015 2:34:00am 32 0 34.52 71 78.8 40.1 59 238 29.46 0 1 0 NA
View 367168 Feb 17 2015 2:35:01am 32 0 34.52 71 79.25 40.1 59 239 29.47 0 1 0 NA
View 367169 Feb 17 2015 2:36:01am 32 0 34.52 71 79.7 40.1 59 239 29.47 0 1 0 NA
View 367170 Feb 17 2015 2:37:01am 32 0 34.52 71 80.15 40.1 59 239 29.46 0 1 0 NA
View 367171 Feb 17 2015 2:38:02am 32 0 34.34 71 80.6 40.1 59 238 29.46 0 1 0 NA
View 48335 Jun 7 2014 8:25:04pm 32 0 71.06 45 80.6 71.6 87.8 623 29.43 0 0 0 NA
View 367172 Feb 17 2015 2:39:02am 32 0 34.34 72 81.05 40.1 59 239 29.46 0 1 0 NA
View 367173 Feb 17 2015 2:40:02am 32 0 34.52 72 81.95 40.1 59 239 29.46 0 1 0 NA
View 367175 Feb 17 2015 2:42:03am 32 0 34.34 72 82.4 40.1 59 239 29.46 0 1 0 NA
View 367174 Feb 17 2015 2:41:03am 32 0 34.34 72 82.4 40.1 59 239 29.47 0 1 0 NA
View 367177 Feb 17 2015 2:44:04am 32 0 34.34 71 83.3 40.1 59 239 29.46 0 1 0 NA
View 367176 Feb 17 2015 2:43:04am 32 0 34.34 71 83.3 40.1 59 239 29.46 0 1 0 NA
View 367178 Feb 17 2015 2:45:04am 32 0 34.34 72 83.75 40.1 59 239 29.46 0 1 0 NA
View 367179 Feb 17 2015 2:46:05am 32 0 34.34 72 84.2 40.1 59 238 29.46 0 1 0 NA
View 367180 Feb 17 2015 2:47:05am 32 0 34.34 72 84.65 40.1 59 238 29.46 0 1 0 NA
View 367181 Feb 17 2015 2:48:05am 32 0 34.52 72 85.1 40.1 59 239 29.46 0 1 0 NA
View 367182 Feb 17 2015 2:49:06am 32 0 34.34 72 85.55 40.1 59 238 29.47 0 1 0 NA
View 367184 Feb 17 2015 2:51:07am 32 0 34.52 72 86 40.1 59 238 29.47 0 1 0 NA
View 367183 Feb 17 2015 2:50:06am 32 0 34.34 72 86 40.1 59 239 29.46 0 1 0 NA
View 367185 Feb 17 2015 2:52:07am 32 0 34.52 72 86.45 40.1 59 239 29.46 0 1 0 NA
View 367186 Feb 17 2015 2:53:07am 32 0 34.52 72 86.9 40.1 59 239 29.46 0 1 0 NA
View 367188 Feb 17 2015 2:55:08am 32 0 34.52 72 87.35 40.1 59 239 29.46 0 1 0 NA
View 367187 Feb 17 2015 2:54:08am 32 0 34.52 72 87.35 40.1 59 239 29.46 0 1 0 NA
View 367189 Feb 17 2015 2:56:08am 32 0 34.52 72 87.8 40.1 59 238 29.46 0 1 0 NA
View 367191 Feb 17 2015 2:58:09am 32 0 34.52 72 88.25 40.1 59 239 29.46 0 1 0 NA
View 367190 Feb 17 2015 2:57:09am 32 0 34.52 72 88.25 40.1 59 239 29.46 0 1 0 NA
View 367193 Feb 17 2015 3:00:10am 32 0 34.52 72 88.7 40.1 59 238 29.46 0 1 0 NA
View 367192 Feb 17 2015 2:59:09am 32 0 34.52 72 88.7 40.1 59 238 29.46 0 1 0 NA